Private Wetterstation Sandau
Wetterdaten: Mittwoch, 02.01.2013
Datum Zeit Temp. A. Feuchte A. Luftdruck Regen Wind Richtung Richtung Taupunkt Windchill
02.01.2013 00:01 4,0 C 89 % 1009,7 hPa 0,0 l/m 15,8 km/h (3 Bft) W-SW 247 2,4 C 0,4 C
02.01.2013 00:06 3,9 C 89 % 1009,8 hPa 0,0 l/m 16,9 km/h (3 Bft) W 270 2,3 C 0,1 C
02.01.2013 00:11 3,9 C 90 % 1009,7 hPa 0,0 l/m 8,3 km/h (2 Bft) W-SW 247 2,4 C 1,8 C
02.01.2013 00:16 3,9 C 90 % 1009,7 hPa 0,0 l/m 4,3 km/h (1 Bft) W-SW 247 2,4 C 3,9 C
02.01.2013 00:21 3,8 C 89 % 1009,5 hPa 0,0 l/m 8,3 km/h (2 Bft) SW 225 2,2 C 1,6 C
02.01.2013 00:26 3,8 C 89 % 1009,8 hPa 0,0 l/m 7,9 km/h (2 Bft) W-SW 247 2,2 C 1,8 C
02.01.2013 00:31 3,8 C 89 % 1009,9 hPa 0,0 l/m 8,3 km/h (2 Bft) W-SW 247 2,2 C 1,6 C
02.01.2013 00:36 3,6 C 89 % 1009,9 hPa 0,0 l/m 13,7 km/h (3 Bft) W 270 2,0 C 0,2 C
02.01.2013 00:41 3,6 C 89 % 1009,9 hPa 0,0 l/m 8,3 km/h (2 Bft) W 270 2,0 C 1,4 C
02.01.2013 00:46 3,5 C 89 % 1010,0 hPa 0,0 l/m 19,1 km/h (3 Bft) W 270 1,9 C -0,7 C
02.01.2013 00:51 3,5 C 89 % 1010,2 hPa 0,0 l/m 10,8 km/h (2 Bft) W-SW 247 1,9 C 0,7 C
02.01.2013 00:56 3,4 C 89 % 1010,0 hPa 0,0 l/m 16,9 km/h (3 Bft) W 270 1,8 C -0,5 C
02.01.2013 01:01 3,4 C 90 % 1010,0 hPa 0,0 l/m 7,6 km/h (2 Bft) W-SW 247 1,9 C 1,4 C
02.01.2013 01:06 3,4 C 90 % 1010,1 hPa 0,0 l/m 6,1 km/h (2 Bft) W-SW 247 1,9 C 1,8 C
02.01.2013 01:11 3,3 C 90 % 1010,2 hPa 0,0 l/m 9,7 km/h (2 Bft) W-SW 247 1,8 C 0,7 C
02.01.2013 01:16 3,3 C 90 % 1010,2 hPa 0,0 l/m 4,7 km/h (1 Bft) W-SW 247 1,8 C 2,3 C
02.01.2013 01:21 3,3 C 90 % 1010,3 hPa 0,0 l/m 9,0 km/h (2 Bft) W-SW 247 1,8 C 0,9 C
02.01.2013 01:26 3,4 C 90 % 1010,3 hPa 0,0 l/m 14,8 km/h (3 Bft) W-SW 247 1,9 C -0,2 C
02.01.2013 01:31 3,4 C 90 % 1010,4 hPa 0,0 l/m 12,2 km/h (2 Bft) W-SW 247 1,9 C 0,3 C
02.01.2013 01:36 3,5 C 90 % 1010,6 hPa 0,0 l/m 13,3 km/h (3 Bft) W-SW 247 2,0 C 0,2 C
02.01.2013 01:41 3,5 C 89 % 1010,7 hPa 0,0 l/m 15,5 km/h (3 Bft) W-SW 247 1,9 C -0,2 C
02.01.2013 01:46 3,5 C 89 % 1010,4 hPa 0,0 l/m 11,5 km/h (2 Bft) W-SW 247 1,9 C 0,5 C
02.01.2013 01:51 3,6 C 89 % 1010,5 hPa 0,0 l/m 16,9 km/h (3 Bft) W 270 2,0 C -0,3 C
02.01.2013 01:56 3,6 C 89 % 1010,7 hPa 0,0 l/m 9,7 km/h (2 Bft) W-SW 247 2,0 C 1,1 C
02.01.2013 02:01 3,6 C 89 % 1010,7 hPa 0,0 l/m 5,0 km/h (1 Bft) W 270 2,0 C 2,5 C
02.01.2013 02:06 3,6 C 89 % 1010,6 hPa 0,0 l/m 14,4 km/h (3 Bft) W-SW 247 2,0 C 0,1 C
02.01.2013 02:11 3,6 C 89 % 1010,8 hPa 0,0 l/m 5,0 km/h (1 Bft) W-SW 247 2,0 C 2,5 C
02.01.2013 02:16 3,6 C 89 % 1010,9 hPa 0,0 l/m 15,8 km/h (3 Bft) SW 225 2,0 C -0,1 C
02.01.2013 02:21 3,6 C 89 % 1010,9 hPa 0,0 l/m 8,3 km/h (2 Bft) S-SW 202 2,0 C 1,4 C
02.01.2013 02:26 3,6 C 89 % 1010,8 hPa 0,0 l/m 16,9 km/h (3 Bft) W-SW 247 2,0 C -0,3 C
02.01.2013 02:31 3,6 C 89 % 1010,8 hPa 0,0 l/m 13,3 km/h (3 Bft) SW 225 2,0 C 0,3 C
02.01.2013 02:36 3,7 C 89 % 1011,0 hPa 0,0 l/m 16,6 km/h (3 Bft) W 270 2,1 C -0,1 C
02.01.2013 02:41 3,8 C 89 % 1011,1 hPa 0,0 l/m 18,4 km/h (3 Bft) SW 225 2,2 C -0,2 C
02.01.2013 02:46 3,8 C 89 % 1011,1 hPa 0,0 l/m 11,2 km/h (2 Bft) W-SW 247 2,2 C 1,0 C
02.01.2013 02:51 3,8 C 89 % 1010,9 hPa 0,0 l/m 9,4 km/h (2 Bft) W-SW 247 2,2 C 1,4 C
02.01.2013 02:56 3,9 C 89 % 1011,1 hPa 0,0 l/m 17,3 km/h (3 Bft) W-SW 247 2,3 C 0,0 C
02.01.2013 03:01 3,9 C 89 % 1011,3 hPa 0,0 l/m 20,2 km/h (4 Bft) W-SW 247 2,3 C -0,3 C
02.01.2013 03:06 3,9 C 89 % 1011,4 hPa 0,0 l/m 15,5 km/h (3 Bft) W 270 2,3 C 0,3 C
02.01.2013 03:11 4,0 C 88 % 1011,1 hPa 0,0 l/m 7,2 km/h (2 Bft) S-SW 202 2,2 C 2,2 C
02.01.2013 03:16 4,1 C 88 % 1011,0 hPa 0,0 l/m 9,7 km/h (2 Bft) SW 225 2,3 C 1,7 C
02.01.2013 03:21 4,1 C 88 % 1011,2 hPa 0,0 l/m 8,6 km/h (2 Bft) S-SW 202 2,3 C 1,9 C
02.01.2013 03:26 4,1 C 88 % 1011,2 hPa 0,0 l/m 13,0 km/h (3 Bft) W-SW 247 2,3 C 1,0 C
02.01.2013 03:31 4,1 C 88 % 1011,3 hPa 0,0 l/m 15,8 km/h (3 Bft) SW 225 2,3 C 0,5 C
02.01.2013 03:36 4,1 C 88 % 1011,4 hPa 0,0 l/m 12,2 km/h (2 Bft) W 270 2,3 C 1,1 C
02.01.2013 03:41 4,1 C 88 % 1011,4 hPa 0,0 l/m 9,4 km/h (2 Bft) W-SW 247 2,3 C 1,7 C
02.01.2013 03:46 4,2 C 88 % 1011,5 hPa 0,0 l/m 10,8 km/h (2 Bft) SW 225 2,4 C 1,5 C
02.01.2013 03:51 4,2 C 88 % 1011,6 hPa 0,0 l/m 15,5 km/h (3 Bft) S-SW 202 2,4 C 0,7 C
02.01.2013 03:56 4,3 C 87 % 1011,5 hPa 0,0 l/m 14,4 km/h (3 Bft) W-SW 247 2,3 C 1,0 C
02.01.2013 04:01 4,3 C 87 % 1011,5 hPa 0,0 l/m 13,3 km/h (3 Bft) SW 225 2,3 C 1,2 C
02.01.2013 04:06 4,3 C 87 % 1011,5 hPa 0,0 l/m 10,4 km/h (2 Bft) W-SW 247 2,3 C 1,7 C
02.01.2013 04:11 4,4 C 87 % 1011,5 hPa 0,0 l/m 9,0 km/h (2 Bft) S 180 2,4 C 2,2 C
02.01.2013 04:16 4,4 C 87 % 1011,6 hPa 0,0 l/m 13,0 km/h (3 Bft) SW 225 2,4 C 1,3 C
02.01.2013 04:21 4,4 C 87 % 1011,7 hPa 0,0 l/m 11,9 km/h (2 Bft) SW 225 2,4 C 1,5 C
02.01.2013 04:26 4,4 C 86 % 1011,6 hPa 0,0 l/m 9,7 km/h (2 Bft) SW 225 2,3 C 2,0 C
02.01.2013 04:31 4,4 C 86 % 1011,7 hPa 0,0 l/m 12,6 km/h (3 Bft) S-SW 202 2,3 C 1,4 C
02.01.2013 04:36 4,4 C 86 % 1011,7 hPa 0,0 l/m 14,4 km/h (3 Bft) SW 225 2,3 C 1,1 C
02.01.2013 04:41 4,4 C 86 % 1011,8 hPa 0,0 l/m 9,7 km/h (2 Bft) W-SW 247 2,3 C 2,0 C
02.01.2013 04:46 4,4 C 86 % 1011,7 hPa 0,0 l/m 9,0 km/h (2 Bft) S 180 2,3 C 2,2 C
02.01.2013 04:51 4,4 C 86 % 1011,7 hPa 0,0 l/m 5,0 km/h (1 Bft) S-SW 202 2,3 C 3,4 C
02.01.2013 04:56 4,4 C 86 % 1011,7 hPa 0,0 l/m 8,3 km/h (2 Bft) SW 225 2,3 C 2,4 C
02.01.2013 05:01 4,4 C 86 % 1011,7 hPa 0,0 l/m 5,0 km/h (1 Bft) SW 225 2,3 C 3,4 C
02.01.2013 05:06 4,4 C 86 % 1011,8 hPa 0,0 l/m 9,4 km/h (2 Bft) W-SW 247 2,3 C 2,1 C
02.01.2013 05:11 4,4 C 86 % 1011,7 hPa 0,0 l/m 6,1 km/h (2 Bft) S-SW 202 2,3 C 3,0 C
02.01.2013 05:16 4,4 C 87 % 1011,8 hPa 0,0 l/m 6,1 km/h (2 Bft) SW 225 2,4 C 3,0 C
02.01.2013 05:21 4,4 C 87 % 1011,7 hPa 0,0 l/m 13,7 km/h (3 Bft) S-SW 202 2,4 C 1,2 C
02.01.2013 05:26 4,4 C 87 % 1011,9 hPa 0,0 l/m 8,3 km/h (2 Bft) W-SW 247 2,4 C 2,4 C
02.01.2013 05:31 4,4 C 87 % 1012,0 hPa 0,0 l/m 6,5 km/h (2 Bft) W-SW 247 2,4 C 2,9 C
02.01.2013 05:36 4,5 C 87 % 1011,9 hPa 0,0 l/m 14,4 km/h (3 Bft) W-SW 247 2,5 C 1,2 C
02.01.2013 05:41 4,5 C 87 % 1011,9 hPa 0,0 l/m 19,4 km/h (3 Bft) S-SO 157 2,5 C 0,5 C
02.01.2013 05:46 4,6 C 87 % 1011,9 hPa 0,0 l/m 16,2 km/h (3 Bft) W-SW 247 2,6 C 1,1 C
02.01.2013 05:51 4,6 C 86 % 1012,0 hPa 0,0 l/m 6,1 km/h (2 Bft) W-SW 247 2,5 C 3,2 C
02.01.2013 05:56 4,7 C 86 % 1011,9 hPa 0,0 l/m 18,7 km/h (3 Bft) SW 225 2,6 C 0,9 C
02.01.2013 06:01 4,8 C 86 % 1011,9 hPa 0,0 l/m 10,4 km/h (2 Bft) S-SO 157 2,7 C 2,3 C
02.01.2013 06:06 4,8 C 86 % 1012,0 hPa 0,0 l/m 18,7 km/h (3 Bft) SW 225 2,7 C 1,0 C
02.01.2013 06:11 4,9 C 86 % 1012,1 hPa 0,0 l/m 11,5 km/h (2 Bft) W 270 2,8 C 2,2 C
02.01.2013 06:16 4,9 C 86 % 1012,1 hPa 0,0 l/m 11,2 km/h (2 Bft) SW 225 2,8 C 2,3 C
02.01.2013 06:21 4,9 C 86 % 1012,3 hPa 0,0 l/m 16,9 km/h (3 Bft) W 270 2,8 C 1,3 C
02.01.2013 06:26 4,9 C 86 % 1012,4 hPa 0,0 l/m 6,1 km/h (2 Bft) W-SW 247 2,8 C 3,6 C
02.01.2013 06:31 4,9 C 85 % 1012,4 hPa 0,0 l/m 11,5 km/h (2 Bft) S-SW 202 2,6 C 2,2 C
02.01.2013 06:36 5,0 C 85 % 1012,4 hPa 0,0 l/m 18,0 km/h (3 Bft) W 270 2,7 C 1,3 C
02.01.2013 06:41 5,0 C 85 % 1012,5 hPa 0,0 l/m 7,2 km/h (2 Bft) S-SW 202 2,7 C 3,4 C
02.01.2013 06:46 5,0 C 86 % 1012,7 hPa 0,0 l/m 17,3 km/h (3 Bft) W 270 2,9 C 1,4 C
02.01.2013 06:51 5,0 C 86 % 1012,8 hPa 0,0 l/m 14,4 km/h (3 Bft) W-SW 247 2,9 C 1,8 C
02.01.2013 06:56 5,0 C 86 % 1012,9 hPa 0,0 l/m 10,8 km/h (2 Bft) SW 225 2,9 C 2,5 C
02.01.2013 07:01 5,0 C 86 % 1012,7 hPa 0,0 l/m 19,1 km/h (3 Bft) W 270 2,9 C 1,2 C
02.01.2013 07:06 5,0 C 86 % 1013,0 hPa 0,0 l/m 15,5 km/h (3 Bft) W-SW 247 2,9 C 1,7 C
02.01.2013 07:11 5,0 C 86 % 1013,0 hPa 0,0 l/m 10,8 km/h (2 Bft) W 270 2,9 C 2,5 C
02.01.2013 07:16 5,0 C 86 % 1013,2 hPa 0,0 l/m 17,6 km/h (3 Bft) W-SW 247 2,9 C 1,4 C
02.01.2013 07:21 5,1 C 85 % 1013,1 hPa 0,0 l/m 9,4 km/h (2 Bft) W-SW 247 2,8 C 2,9 C
02.01.2013 07:26 5,1 C 85 % 1013,3 hPa 0,0 l/m 20,9 km/h (4 Bft) W 270 2,8 C 1,1 C
02.01.2013 07:31 5,1 C 85 % 1013,4 hPa 0,0 l/m 13,3 km/h (3 Bft) W-SW 247 2,8 C 2,1 C
02.01.2013 07:36 5,1 C 85 % 1013,5 hPa 0,0 l/m 11,2 km/h (2 Bft) W 270 2,8 C 2,5 C
02.01.2013 07:41 5,1 C 85 % 1013,5 hPa 0,0 l/m 29,9 km/h (5 Bft) W 270 2,8 C 0,2 C
02.01.2013 07:46 5,1 C 86 % 1013,7 hPa 0,0 l/m 7,2 km/h (2 Bft) W-SW 247 3,0 C 3,5 C
02.01.2013 07:51 5,1 C 86 % 1014,0 hPa 0,0 l/m 19,8 km/h (3 Bft) W-SW 247 3,0 C 1,2 C
02.01.2013 07:56 5,1 C 86 % 1013,9 hPa 0,0 l/m 17,3 km/h (3 Bft) W 270 3,0 C 1,5 C
02.01.2013 08:01 5,1 C 86 % 1014,0 hPa 0,0 l/m 23,4 km/h (4 Bft) W 270 3,0 C 0,8 C
02.01.2013 08:06 5,1 C 86 % 1014,3 hPa 0,0 l/m 6,8 km/h (2 Bft) W 270 3,0 C 3,6 C
02.01.2013 08:11 5,1 C 86 % 1014,5 hPa 0,0 l/m 15,8 km/h (3 Bft) W-SW 247 3,0 C 1,8 C
02.01.2013 08:16 5,0 C 86 % 1014,4 hPa 0,0 l/m 18,4 km/h (3 Bft) W 270 2,9 C 1,3 C
02.01.2013 08:21 5,0 C 86 % 1014,5 hPa 0,0 l/m 13,7 km/h (3 Bft) W 270 2,9 C 2,0 C
02.01.2013 08:26 5,0 C 86 % 1014,6 hPa 0,0 l/m 6,8 km/h (2 Bft) W-SW 247 2,9 C 3,5 C
02.01.2013 08:31 5,0 C 86 % 1014,6 hPa 0,0 l/m 9,4 km/h (2 Bft) W 270 2,9 C 2,8 C
02.01.2013 08:36 4,9 C 86 % 1014,8 hPa 0,0 l/m 7,2 km/h (2 Bft) W-SW 247 2,8 C 3,2 C
02.01.2013 08:41 4,9 C 86 % 1014,9 hPa 0,0 l/m 16,9 km/h (3 Bft) W 270 2,8 C 1,3 C
02.01.2013 08:46 4,9 C 86 % 1015,2 hPa 0,0 l/m 21,6 km/h (4 Bft) W-SW 247 2,8 C 0,8 C
02.01.2013 08:51 4,9 C 86 % 1015,0 hPa 0,0 l/m 18,7 km/h (3 Bft) W-SW 247 2,8 C 1,1 C
02.01.2013 08:56 4,9 C 86 % 1015,1 hPa 0,0 l/m 20,9 km/h (4 Bft) W-SW 247 2,8 C 0,8 C
02.01.2013 09:01 4,9 C 87 % 1015,4 hPa 0,0 l/m 28,8 km/h (4 Bft) W-SW 247 2,9 C 0,0 C
02.01.2013 09:06 4,9 C 87 % 1015,4 hPa 0,0 l/m 20,5 km/h (4 Bft) W-SW 247 2,9 C 0,9 C
02.01.2013 09:11 4,8 C 87 % 1015,3 hPa 0,0 l/m 14,0 km/h (3 Bft) W 270 2,8 C 1,7 C
02.01.2013 09:16 4,8 C 87 % 1015,6 hPa 0,0 l/m 31,7 km/h (5 Bft) W-SW 247 2,8 C -0,4 C
02.01.2013 09:21 4,6 C 87 % 1015,6 hPa 0,0 l/m 23,0 km/h (4 Bft) W-SW 247 2,6 C 0,2 C
02.01.2013 09:26 4,6 C 87 % 1015,7 hPa 0,0 l/m 10,8 km/h (2 Bft) W-SW 247 2,6 C 2,0 C
02.01.2013 09:31 4,6 C 87 % 1015,7 hPa 0,0 l/m 9,4 km/h (2 Bft) W-SW 247 2,6 C 2,3 C
02.01.2013 09:36 4,6 C 87 % 1015,7 hPa 0,5 l/m 27,0 km/h (4 Bft) W 270 2,6 C -0,2 C
02.01.2013 09:41 4,6 C 87 % 1015,9 hPa 0,0 l/m 19,1 km/h (3 Bft) W 270 2,6 C 0,7 C
02.01.2013 09:46 4,6 C 87 % 1016,0 hPa 0,0 l/m 6,1 km/h (2 Bft) SW 225 2,6 C 3,2 C
02.01.2013 09:51 4,6 C 87 % 1016,1 hPa 0,0 l/m 16,9 km/h (3 Bft) W-SW 247 2,6 C 1,0 C
02.01.2013 09:56 4,5 C 87 % 1016,2 hPa 0,0 l/m 16,9 km/h (3 Bft) W 270 2,5 C 0,8 C
02.01.2013 10:01 4,6 C 87 % 1016,3 hPa 0,0 l/m 31,0 km/h (5 Bft) W 270 2,6 C -0,6 C
02.01.2013 10:06 4,6 C 88 % 1016,3 hPa 0,0 l/m 16,6 km/h (3 Bft) W 270 2,8 C 1,0 C
02.01.2013 10:11 4,7 C 88 % 1016,4 hPa 0,0 l/m 18,0 km/h (3 Bft) W 270 2,9 C 0,9 C
02.01.2013 10:16 4,9 C 87 % 1016,5 hPa 0,0 l/m 29,2 km/h (5 Bft) W 270 2,9 C -0,0 C
02.01.2013 10:21 4,9 C 87 % 1016,5 hPa 0,0 l/m 4,7 km/h (1 Bft) W-SW 247 2,9 C 4,1 C
02.01.2013 10:26 4,9 C 87 % 1016,6 hPa 0,0 l/m 26,6 km/h (4 Bft) W-SW 247 2,9 C 0,2 C
02.01.2013 10:31 4,9 C 87 % 1016,8 hPa 0,0 l/m 14,8 km/h (3 Bft) W 270 2,9 C 1,7 C
02.01.2013 10:36 4,9 C 87 % 1016,8 hPa 0,0 l/m 9,7 km/h (2 Bft) NW 315 2,9 C 2,6 C
02.01.2013 10:41 4,9 C 88 % 1016,8 hPa 0,0 l/m 5,8 km/h (2 Bft) W 270 3,1 C 3,7 C
02.01.2013 10:46 4,9 C 88 % 1016,9 hPa 0,0 l/m 12,6 km/h (3 Bft) W 270 3,1 C 2,0 C
02.01.2013 10:51 4,9 C 88 % 1017,0 hPa 0,0 l/m 11,9 km/h (2 Bft) W-SW 247 3,1 C 2,2 C
02.01.2013 10:56 4,9 C 88 % 1017,1 hPa 0,0 l/m 20,2 km/h (4 Bft) W-SW 247 3,1 C 0,9 C
02.01.2013 11:01 4,9 C 88 % 1017,2 hPa 0,0 l/m 13,7 km/h (3 Bft) W-SW 247 3,1 C 1,8 C
02.01.2013 11:06 4,9 C 88 % 1017,2 hPa 0,0 l/m 6,5 km/h (2 Bft) W-SW 247 3,1 C 3,4 C
02.01.2013 11:11 5,0 C 88 % 1017,4 hPa 0,0 l/m 17,3 km/h (3 Bft) W-SW 247 3,2 C 1,4 C
02.01.2013 11:16 5,1 C 88 % 1017,4 hPa 0,0 l/m 26,3 km/h (4 Bft) W 270 3,3 C 0,5 C
02.01.2013 11:21 5,2 C 88 % 1017,5 hPa 0,0 l/m 17,3 km/h (3 Bft) W 270 3,4 C 1,7 C
02.01.2013 11:26 5,4 C 89 % 1017,7 hPa 0,0 l/m 4,3 km/h (1 Bft) NW 315 3,7 C 5,4 C
02.01.2013 11:31 5,5 C 88 % 1017,6 hPa 0,0 l/m 24,5 km/h (4 Bft) W-SW 247 3,7 C 1,2 C
02.01.2013 11:36 5,6 C 88 % 1017,7 hPa 0,0 l/m 25,2 km/h (4 Bft) W-NW 292 3,8 C 1,3 C
02.01.2013 11:41 5,6 C 88 % 1017,6 hPa 0,0 l/m 22,0 km/h (4 Bft) W-SW 247 3,8 C 1,6 C
02.01.2013 11:46 5,8 C 88 % 1017,7 hPa 0,0 l/m 14,4 km/h (3 Bft) W 270 4,0 C 2,8 C
02.01.2013 11:51 5,8 C 87 % 1017,8 hPa 0,0 l/m 16,6 km/h (3 Bft) W-SW 247 3,8 C 2,5 C
02.01.2013 11:56 5,8 C 87 % 1017,8 hPa 0,0 l/m 6,8 km/h (2 Bft) NW 315 3,8 C 4,4 C
02.01.2013 12:01 5,9 C 87 % 1017,9 hPa 0,0 l/m 16,6 km/h (3 Bft) W-SW 247 3,9 C 2,6 C
02.01.2013 12:06 5,9 C 87 % 1017,9 hPa 0,0 l/m 16,9 km/h (3 Bft) W 270 3,9 C 2,6 C
02.01.2013 12:11 6,2 C 87 % 1017,9 hPa 0,0 l/m 29,9 km/h (5 Bft) W 270 4,2 C 1,6 C
02.01.2013 12:16 6,3 C 86 % 1017,9 hPa 0,0 l/m 11,5 km/h (2 Bft) W-SW 247 4,1 C 3,9 C
02.01.2013 12:21 6,3 C 86 % 1018,1 hPa 0,0 l/m 19,1 km/h (3 Bft) W 270 4,1 C 2,8 C
02.01.2013 12:26 6,2 C 86 % 1018,1 hPa 0,0 l/m 14,8 km/h (3 Bft) W 270 4,0 C 3,3 C
02.01.2013 12:31 6,2 C 86 % 1018,0 hPa 0,0 l/m 13,7 km/h (3 Bft) W 270 4,0 C 3,4 C
02.01.2013 12:36 6,2 C 86 % 1018,1 hPa 0,0 l/m 14,8 km/h (3 Bft) NW 315 4,0 C 3,3 C
02.01.2013 12:41 6,1 C 86 % 1018,2 hPa 0,0 l/m 19,1 km/h (3 Bft) W-NW 292 3,9 C 2,6 C
02.01.2013 12:46 6,1 C 86 % 1018,3 hPa 0,0 l/m 19,1 km/h (3 Bft) NW 315 3,9 C 2,6 C
02.01.2013 12:51 6,1 C 86 % 1018,5 hPa 0,0 l/m 20,2 km/h (4 Bft) W 270 3,9 C 2,4 C
02.01.2013 12:56 6,1 C 86 % 1018,4 hPa 0,0 l/m 14,0 km/h (3 Bft) W 270 3,9 C 3,3 C
02.01.2013 13:01 6,1 C 86 % 1018,3 hPa 0,0 l/m 11,9 km/h (2 Bft) W 270 3,9 C 3,6 C
02.01.2013 13:06 6,0 C 86 % 1018,4 hPa 0,0 l/m 15,8 km/h (3 Bft) W-SW 247 3,8 C 2,9 C
02.01.2013 13:11 5,9 C 86 % 1018,5 hPa 0,0 l/m 6,1 km/h (2 Bft) W 270 3,7 C 4,7 C
02.01.2013 13:16 6,1 C 86 % 1018,6 hPa 0,0 l/m 17,3 km/h (3 Bft) W-NW 292 3,9 C 2,8 C
02.01.2013 13:21 6,1 C 86 % 1018,7 hPa 0,0 l/m 4,0 km/h (1 Bft) W 270 3,9 C 6,1 C
02.01.2013 13:26 6,1 C 86 % 1018,8 hPa 0,0 l/m 12,6 km/h (3 Bft) W 270 3,9 C 3,5 C
02.01.2013 13:31 6,1 C 86 % 1018,9 hPa 0,0 l/m 9,7 km/h (2 Bft) W-SW 247 3,9 C 4,0 C
02.01.2013 13:36 6,2 C 86 % 1018,9 hPa 0,0 l/m 23,0 km/h (4 Bft) W 270 4,0 C 2,3 C
02.01.2013 13:41 6,2 C 86 % 1019,0 hPa 0,0 l/m 7,6 km/h (2 Bft) W 270 4,0 C 4,6 C
02.01.2013 13:46 6,2 C 86 % 1019,1 hPa 0,0 l/m 5,0 km/h (1 Bft) W-SW 247 4,0 C 5,4 C
02.01.2013 13:51 6,2 C 86 % 1019,2 hPa 0,0 l/m 8,3 km/h (2 Bft) W 270 4,0 C 4,5 C
02.01.2013 13:56 6,2 C 86 % 1019,2 hPa 0,0 l/m 10,1 km/h (2 Bft) W 270 4,0 C 4,1 C
02.01.2013 14:01 6,2 C 86 % 1019,3 hPa 0,0 l/m 4,7 km/h (1 Bft) W 270 4,0 C 5,6 C
02.01.2013 14:06 6,3 C 86 % 1019,2 hPa 0,0 l/m 17,3 km/h (3 Bft) W-NW 292 4,1 C 3,0 C
02.01.2013 14:11 6,2 C 85 % 1019,2 hPa 0,0 l/m 18,4 km/h (3 Bft) W-SW 247 3,9 C 2,8 C
02.01.2013 14:16 6,3 C 85 % 1019,3 hPa 0,0 l/m 5,8 km/h (2 Bft) W 270 4,0 C 5,3 C
02.01.2013 14:21 6,3 C 85 % 1019,4 hPa 0,0 l/m 5,0 km/h (1 Bft) W 270 4,0 C 5,6 C
02.01.2013 14:26 6,2 C 85 % 1019,3 hPa 0,0 l/m 14,4 km/h (3 Bft) W 270 3,9 C 3,3 C
02.01.2013 14:31 6,2 C 85 % 1019,4 hPa 0,0 l/m 4,3 km/h (1 Bft) W 270 3,9 C 6,2 C
02.01.2013 14:36 6,2 C 85 % 1019,5 hPa 0,0 l/m 10,8 km/h (2 Bft) W-SW 247 3,9 C 3,9 C
02.01.2013 14:41 6,2 C 85 % 1019,5 hPa 0,0 l/m 16,6 km/h (3 Bft) W 270 3,9 C 3,0 C
02.01.2013 14:46 6,2 C 86 % 1019,6 hPa 0,0 l/m 6,8 km/h (2 Bft) W-SW 247 4,0 C 4,9 C
02.01.2013 14:51 6,2 C 86 % 1019,5 hPa 0,0 l/m 13,7 km/h (3 Bft) W 270 4,0 C 3,4 C
02.01.2013 14:56 6,2 C 86 % 1019,8 hPa 0,0 l/m 6,1 km/h (2 Bft) W 270 4,0 C 5,1 C
02.01.2013 15:01 6,1 C 86 % 1019,9 hPa 0,0 l/m 14,8 km/h (3 Bft) W-SW 247 3,9 C 3,1 C
02.01.2013 15:06 6,1 C 86 % 1020,2 hPa 0,0 l/m 14,8 km/h (3 Bft) W-SW 247 3,9 C 3,1 C
02.01.2013 15:11 6,1 C 86 % 1020,3 hPa 0,0 l/m 11,9 km/h (2 Bft) W-SW 247 3,9 C 3,6 C
02.01.2013 15:16 6,1 C 87 % 1020,4 hPa 0,0 l/m 19,4 km/h (3 Bft) W-SW 247 4,1 C 2,5 C
02.01.2013 15:21 5,9 C 87 % 1020,4 hPa 0,0 l/m 14,8 km/h (3 Bft) S-SW 202 3,9 C 2,9 C
02.01.2013 15:26 5,9 C 87 % 1020,5 hPa 0,0 l/m 10,1 km/h (2 Bft) W 270 3,9 C 3,7 C
02.01.2013 15:31 5,8 C 87 % 1020,6 hPa 0,0 l/m 12,6 km/h (3 Bft) W-SW 247 3,8 C 3,1 C
02.01.2013 15:36 5,8 C 86 % 1020,5 hPa 0,0 l/m 11,9 km/h (2 Bft) W-SW 247 3,6 C 3,2 C
02.01.2013 15:41 5,8 C 86 % 1020,7 hPa 0,0 l/m 8,3 km/h (2 Bft) W-SW 247 3,6 C 4,0 C
02.01.2013 15:46 5,6 C 86 % 1020,8 hPa 0,0 l/m 15,8 km/h (3 Bft) W 270 3,4 C 2,4 C
02.01.2013 15:51 5,6 C 87 % 1020,8 hPa 0,0 l/m 9,0 km/h (2 Bft) SW 225 3,6 C 3,6 C
02.01.2013 15:56 5,6 C 87 % 1021,0 hPa 0,0 l/m 19,1 km/h (3 Bft) W 270 3,6 C 1,9 C
02.01.2013 16:01 5,6 C 87 % 1021,0 hPa 0,0 l/m 26,6 km/h (4 Bft) W 270 3,6 C 1,1 C
02.01.2013 16:06 5,6 C 88 % 1021,2 hPa 0,0 l/m 14,4 km/h (3 Bft) W 270 3,8 C 2,6 C
02.01.2013 16:11 5,6 C 88 % 1021,3 hPa 0,0 l/m 19,1 km/h (3 Bft) W 270 3,8 C 1,9 C
02.01.2013 16:16 5,6 C 88 % 1021,3 hPa 0,0 l/m 12,2 km/h (2 Bft) W 270 3,8 C 2,9 C
02.01.2013 16:21 5,6 C 88 % 1021,4 hPa 0,0 l/m 16,9 km/h (3 Bft) W 270 3,8 C 2,2 C
02.01.2013 16:26 5,6 C 88 % 1021,4 hPa 0,0 l/m 22,7 km/h (4 Bft) W 270 3,8 C 1,5 C
02.01.2013 16:31 5,6 C 88 % 1021,4 hPa 0,0 l/m 8,6 km/h (2 Bft) W-SW 247 3,8 C 3,7 C
02.01.2013 16:36 5,6 C 87 % 1021,5 hPa 0,0 l/m 9,0 km/h (2 Bft) W 270 3,6 C 3,6 C
02.01.2013 16:41 5,6 C 87 % 1021,6 hPa 0,0 l/m 14,8 km/h (3 Bft) W 270 3,6 C 2,5 C
02.01.2013 16:46 5,6 C 87 % 1021,5 hPa 0,0 l/m 14,8 km/h (3 Bft) W-SW 247 3,6 C 2,5 C
02.01.2013 16:51 5,5 C 87 % 1021,6 hPa 0,0 l/m 12,2 km/h (2 Bft) W-SW 247 3,5 C 2,8 C
02.01.2013 16:56 5,5 C 87 % 1021,8 hPa 0,0 l/m 8,6 km/h (2 Bft) W-SW 247 3,5 C 3,6 C
02.01.2013 17:01 5,5 C 87 % 1021,8 hPa 0,0 l/m 6,1 km/h (2 Bft) W 270 3,5 C 4,3 C
02.01.2013 17:06 5,5 C 87 % 1021,9 hPa 0,0 l/m 9,7 km/h (2 Bft) W-SW 247 3,5 C 3,3 C
02.01.2013 17:11 5,5 C 87 % 1021,7 hPa 0,0 l/m 14,4 km/h (3 Bft) W-SW 247 3,5 C 2,5 C
02.01.2013 17:16 5,5 C 87 % 1021,9 hPa 0,0 l/m 10,1 km/h (2 Bft) W-SW 247 3,5 C 3,2 C
02.01.2013 17:21 5,4 C 87 % 1021,9 hPa 0,0 l/m 16,6 km/h (3 Bft) W 270 3,4 C 2,0 C
02.01.2013 17:26 5,4 C 87 % 1022,0 hPa 0,0 l/m 14,8 km/h (3 Bft) W-SW 247 3,4 C 2,3 C
02.01.2013 17:31 5,4 C 88 % 1022,1 hPa 0,0 l/m 18,7 km/h (3 Bft) W 270 3,6 C 1,7 C
02.01.2013 17:36 5,5 C 88 % 1022,1 hPa 0,0 l/m 11,2 km/h (2 Bft) W-SW 247 3,7 C 3,0 C
02.01.2013 17:41 5,5 C 88 % 1022,3 hPa 0,0 l/m 9,0 km/h (2 Bft) W 270 3,7 C 3,5 C
02.01.2013 17:46 5,6 C 88 % 1022,2 hPa 0,0 l/m 19,1 km/h (3 Bft) W-SW 247 3,8 C 1,9 C
02.01.2013 17:51 5,6 C 87 % 1022,3 hPa 0,0 l/m 14,8 km/h (3 Bft) W-SW 247 3,6 C 2,5 C
02.01.2013 17:56 5,6 C 87 % 1022,4 hPa 0,0 l/m 8,6 km/h (2 Bft) W-SW 247 3,6 C 3,7 C
02.01.2013 18:01 5,6 C 87 % 1022,3 hPa 0,0 l/m 7,6 km/h (2 Bft) W 270 3,6 C 3,9 C
02.01.2013 18:06 5,5 C 87 % 1022,3 hPa 0,0 l/m 23,8 km/h (4 Bft) W 270 3,5 C 1,3 C
02.01.2013 18:11 5,4 C 87 % 1022,4 hPa 0,0 l/m 16,9 km/h (3 Bft) W 270 3,4 C 2,0 C
02.01.2013 18:16 5,3 C 88 % 1022,4 hPa 0,0 l/m 18,4 km/h (3 Bft) W-SW 247 3,5 C 1,6 C
02.01.2013 18:21 5,3 C 88 % 1022,5 hPa 0,0 l/m 16,2 km/h (3 Bft) W 270 3,5 C 1,9 C
02.01.2013 18:26 5,3 C 88 % 1022,8 hPa 0,0 l/m 11,2 km/h (2 Bft) W 270 3,5 C 2,8 C
02.01.2013 18:31 5,3 C 88 % 1022,9 hPa 0,0 l/m 14,8 km/h (3 Bft) W-SW 247 3,5 C 2,1 C
02.01.2013 18:36 5,3 C 88 % 1022,9 hPa 0,0 l/m 7,9 km/h (2 Bft) W-SW 247 3,5 C 3,5 C
02.01.2013 18:41 5,3 C 88 % 1023,1 hPa 0,0 l/m 7,9 km/h (2 Bft) W 270 3,5 C 3,5 C
02.01.2013 18:46 5,3 C 88 % 1023,0 hPa 0,0 l/m 10,8 km/h (2 Bft) W 270 3,5 C 2,9 C
02.01.2013 18:51 5,3 C 88 % 1023,1 hPa 0,0 l/m 9,7 km/h (2 Bft) W-SW 247 3,5 C 3,1 C
02.01.2013 18:56 5,3 C 88 % 1023,1 hPa 0,0 l/m 4,7 km/h (1 Bft) W-SW 247 3,5 C 4,5 C
02.01.2013 19:01 5,4 C 88 % 1023,2 hPa 0,0 l/m 11,9 km/h (2 Bft) W-SW 247 3,6 C 2,8 C
02.01.2013 19:06 5,4 C 89 % 1023,3 hPa 0,0 l/m 13,3 km/h (3 Bft) W 270 3,7 C 2,5 C
02.01.2013 19:11 5,5 C 89 % 1023,3 hPa 0,5 l/m 10,1 km/h (2 Bft) N-NW 337 3,8 C 3,2 C
02.01.2013 19:16 5,6 C 89 % 1023,3 hPa 0,0 l/m 4,7 km/h (1 Bft) W-NW 292 3,9 C 4,9 C
02.01.2013 19:21 5,6 C 89 % 1023,3 hPa 0,0 l/m 4,0 km/h (1 Bft) W-SW 247 3,9 C 5,6 C
02.01.2013 19:26 5,5 C 89 % 1023,5 hPa 0,0 l/m 10,1 km/h (2 Bft) W 270 3,8 C 3,2 C
02.01.2013 19:31 5,5 C 89 % 1023,6 hPa 0,0 l/m 22,0 km/h (4 Bft) W 270 3,8 C 1,5 C
02.01.2013 19:36 5,4 C 90 % 1023,7 hPa 0,0 l/m 10,4 km/h (2 Bft) W-SW 247 3,9 C 3,1 C
02.01.2013 19:41 5,4 C 90 % 1023,7 hPa 0,0 l/m 13,3 km/h (3 Bft) W 270 3,9 C 2,5 C
02.01.2013 19:46 5,4 C 90 % 1023,9 hPa 0,0 l/m 14,4 km/h (3 Bft) W 270 3,9 C 2,3 C
02.01.2013 19:51 5,3 C 90 % 1023,9 hPa 0,0 l/m 7,6 km/h (2 Bft) W-SW 247 3,8 C 3,6 C
02.01.2013 19:56 5,3 C 90 % 1023,9 hPa 0,0 l/m 12,2 km/h (2 Bft) W-NW 292 3,8 C 2,6 C
02.01.2013 20:01 5,3 C 90 % 1023,8 hPa 0,0 l/m 15,1 km/h (3 Bft) W-SW 247 3,8 C 2,1 C
02.01.2013 20:06 5,3 C 89 % 1023,8 hPa 0,0 l/m 7,2 km/h (2 Bft) W-SW 247 3,6 C 3,7 C
02.01.2013 20:11 5,3 C 89 % 1023,9 hPa 0,0 l/m 8,6 km/h (2 Bft) W-SW 247 3,6 C 3,3 C
02.01.2013 20:16 5,3 C 89 % 1024,0 hPa 0,0 l/m 7,6 km/h (2 Bft) W-NW 292 3,6 C 3,6 C
02.01.2013 20:21 5,3 C 89 % 1024,0 hPa 0,0 l/m 13,7 km/h (3 Bft) W 270 3,6 C 2,3 C
02.01.2013 20:26 5,3 C 89 % 1024,0 hPa 0,0 l/m 9,4 km/h (2 Bft) W-SW 247 3,6 C 3,1 C
02.01.2013 20:31 5,4 C 89 % 1024,2 hPa 0,0 l/m 13,3 km/h (3 Bft) W-SW 247 3,7 C 2,5 C
02.01.2013 20:36 5,4 C 88 % 1024,2 hPa 0,0 l/m 26,3 km/h (4 Bft) W-SW 247 3,6 C 0,9 C
02.01.2013 20:41 5,4 C 88 % 1024,3 hPa 0,0 l/m 16,9 km/h (3 Bft) W 270 3,6 C 2,0 C
02.01.2013 20:46 5,4 C 87 % 1024,1 hPa 0,0 l/m 10,1 km/h (2 Bft) W-SW 247 3,4 C 3,1 C
02.01.2013 20:51 5,4 C 87 % 1024,2 hPa 0,0 l/m 18,4 km/h (3 Bft) W 270 3,4 C 1,8 C
02.01.2013 20:56 5,4 C 87 % 1024,2 hPa 0,0 l/m 18,7 km/h (3 Bft) W 270 3,4 C 1,7 C
02.01.2013 21:01 5,4 C 87 % 1024,1 hPa 0,0 l/m 12,2 km/h (2 Bft) W-SW 247 3,4 C 2,7 C
02.01.2013 21:06 5,3 C 87 % 1024,2 hPa 0,0 l/m 11,9 km/h (2 Bft) W-SW 247 3,3 C 2,6 C
02.01.2013 21:11 5,3 C 87 % 1024,3 hPa 0,0 l/m 9,0 km/h (2 Bft) W-SW 247 3,3 C 3,2 C
02.01.2013 21:16 5,2 C 87 % 1024,4 hPa 0,0 l/m 18,4 km/h (3 Bft) W-SW 247 3,2 C 1,5 C
02.01.2013 21:21 5,2 C 87 % 1024,4 hPa 0,0 l/m 10,1 km/h (2 Bft) W-SW 247 3,2 C 2,9 C
02.01.2013 21:26 5,1 C 87 % 1024,6 hPa 0,0 l/m 15,5 km/h (3 Bft) W 270 3,1 C 1,8 C
02.01.2013 21:31 5,1 C 87 % 1024,5 hPa 0,0 l/m 15,5 km/h (3 Bft) W 270 3,1 C 1,8 C
02.01.2013 21:36 5,1 C 87 % 1024,6 hPa 0,0 l/m 8,6 km/h (2 Bft) W-SW 247 3,1 C 3,1 C
02.01.2013 21:41 5,1 C 87 % 1024,6 hPa 0,0 l/m 12,2 km/h (2 Bft) W 270 3,1 C 2,3 C
02.01.2013 21:46 5,0 C 87 % 1024,5 hPa 0,0 l/m 7,2 km/h (2 Bft) W 270 3,0 C 3,4 C
02.01.2013 21:51 5,0 C 87 % 1024,5 hPa 0,0 l/m 8,3 km/h (2 Bft) W-SW 247 3,0 C 3,1 C
02.01.2013 21:56 5,0 C 88 % 1024,5 hPa 0,0 l/m 10,8 km/h (2 Bft) W-SW 247 3,2 C 2,5 C
02.01.2013 22:01 5,0 C 88 % 1024,5 hPa 0,0 l/m 10,8 km/h (2 Bft) W-SW 247 3,2 C 2,5 C
02.01.2013 22:06 5,0 C 88 % 1024,6 hPa 0,0 l/m 11,2 km/h (2 Bft) W-SW 247 3,2 C 2,4 C
02.01.2013 22:11 5,1 C 88 % 1024,6 hPa 0,0 l/m 7,9 km/h (2 Bft) W 270 3,3 C 3,3 C
02.01.2013 22:16 5,1 C 88 % 1024,7 hPa 0,0 l/m 14,8 km/h (3 Bft) W 270 3,3 C 1,9 C
02.01.2013 22:21 5,1 C 88 % 1024,6 hPa 0,0 l/m 5,0 km/h (1 Bft) SW 225 3,3 C 4,2 C
02.01.2013 22:26 5,1 C 87 % 1024,5 hPa 0,0 l/m 12,6 km/h (3 Bft) W-SW 247 3,1 C 2,3 C
02.01.2013 22:31 5,2 C 87 % 1024,6 hPa 0,0 l/m 9,4 km/h (2 Bft) W-NW 292 3,2 C 3,0 C
02.01.2013 22:36 5,2 C 87 % 1024,7 hPa 0,0 l/m 9,7 km/h (2 Bft) W-SW 247 3,2 C 3,0 C
02.01.2013 22:41 5,3 C 87 % 1024,7 hPa 0,0 l/m 19,1 km/h (3 Bft) W-SW 247 3,3 C 1,6 C
02.01.2013 22:46 5,3 C 87 % 1024,4 hPa 0,0 l/m 13,7 km/h (3 Bft) W-SW 247 3,3 C 2,3 C
02.01.2013 22:51 5,3 C 87 % 1024,5 hPa 0,0 l/m 12,6 km/h (3 Bft) W-SW 247 3,3 C 2,5 C
02.01.2013 22:56 5,4 C 87 % 1024,5 hPa 0,0 l/m 16,6 km/h (3 Bft) W 270 3,4 C 2,0 C
02.01.2013 23:01 5,4 C 86 % 1024,5 hPa 0,0 l/m 17,6 km/h (3 Bft) W 270 3,3 C 1,9 C
02.01.2013 23:06 5,4 C 86 % 1024,7 hPa 0,0 l/m 5,0 km/h (1 Bft) W-SW 247 3,3 C 4,5 C
02.01.2013 23:11 5,3 C 86 % 1024,4 hPa 0,0 l/m 8,6 km/h (2 Bft) W-SW 247 3,2 C 3,3 C
02.01.2013 23:16 5,3 C 86 % 1024,4 hPa 0,0 l/m 13,3 km/h (3 Bft) W-SW 247 3,2 C 2,4 C
02.01.2013 23:21 5,3 C 86 % 1024,4 hPa 0,0 l/m 7,2 km/h (2 Bft) SW 225 3,2 C 3,7 C
02.01.2013 23:26 5,3 C 86 % 1024,5 hPa 0,0 l/m 5,0 km/h (1 Bft) SW 225 3,2 C 4,4 C
02.01.2013 23:31 5,3 C 86 % 1024,5 hPa 0,0 l/m 7,6 km/h (2 Bft) W-SW 247 3,2 C 3,6 C
02.01.2013 23:36 5,3 C 86 % 1024,4 hPa 0,0 l/m 12,6 km/h (3 Bft) W-SW 247 3,2 C 2,5 C
02.01.2013 23:41 5,2 C 86 % 1024,3 hPa 0,0 l/m 20,2 km/h (4 Bft) W 270 3,1 C 1,3 C
02.01.2013 23:46 5,2 C 86 % 1024,3 hPa 0,0 l/m 7,2 km/h (2 Bft) W-SW 247 3,1 C 3,6 C
02.01.2013 23:51 5,1 C 86 % 1024,3 hPa 0,0 l/m 19,1 km/h (3 Bft) W-SW 247 3,0 C 1,3 C
02.01.2013 23:56 5,1 C 86 % 1024,4 hPa 0,0 l/m 8,6 km/h (2 Bft) W 270 3,0 C 3,1 C
_ Min-Zeit 01:11 06:31 00:21 - 13:21 - - 00:56 00:46
Minimum _ 3,3 C 85 % 1009,5 hPa - 4,0 km/h (1 Bft) - - 1,8 C -0,7 C
_ Max-Zeit 12:16 00:11 22:16 09:36 09:16 - - 12:11 14:31
Maximum _ 6,3 C 90 % 1024,7 hPa 0,5 l/m 31,7 km/h
W-SW (5 Bft)
- - 4,2 C 6,2 C
Durchschnitt _ 5,0 C 87 % 1017,5 hPa #1,0 l/m 13,2 km/h (3 Bft) W-SW - 3,1 C 2,3 C
(c) by David Heller